KLLQ

Monticello Municipal / Ellis Field Airport

Monticello, Arkansas, USA
METAR KLLQ 221353Z AUTO 09003KT 10SM CLR 09/06 A3027 RMK AO2 SLP251 T00890061
Observed Flight Rules
Oct-22 @ 13:53 UTC (46 minutes ago) Visual Flight Rules
Wind Visibility Clouds
90° at 3 knots 10 miles
  • Clear skies
Temperatures Readings
Current 9°C / 48°F
Dewpoint 6°C / 43°F
Humidity 82%
Altimeter 30.27" Hg
Pressure 1025.1 hPa
Elevation 83
METAR KLLQ 221353Z AUTO 09003KT 10SM CLR 09/06 A3027 RMK AO2 SLP251 T00890061
Observed Flight Rules
Oct-22 @ 13:53 UTC
(46 minutes ago)
VFR
Wind Visibility
90° at 3 knots 10 miles
Clouds
  • Clear skies
Temperature Dewpoint
9°C / 48°F 6°C / 43°F
Humidity Altimeter Pressure
82% 30.27" Hg 1025.1 hPa